Time;durP1;ratioP1;P1;durP2;ratioP2;P2;SDS_P1;SDS_P2;PMS_P1;PMS_P2;Temp;Humidity;BMP_temperature;BMP_pressure;BME280_temperature;BME280_humidity;BME280_pressure;Samples;Min_cycle;Max_cycle;Signal;HPM_P1;HPM_P2
2021/08/19 00:00:47;;;;;;;8.57;7.00;;;;;;;;;;5072920;28;20941;-82
2021/08/19 00:03:13;;;;;;;8.73;7.93;;;;;;;;;;5088662;28;20556;-81
2021/08/19 00:05:39;;;;;;;9.35;8.35;;;;;;;;;;5088862;28;20425;-82
2021/08/19 00:08:05;;;;;;;9.75;8.80;;;;;;;;;;5088548;28;20376;-79
2021/08/19 00:10:31;;;;;;;9.20;8.40;;;;;;;;;;5068033;28;20368;-81
2021/08/19 00:12:58;;;;;;;9.25;8.30;;;;;;;;;;5068648;28;20378;-80
2021/08/19 00:15:24;;;;;;;9.70;8.80;;;;;;;;;;5068679;28;20397;-81
2021/08/19 00:17:50;;;;;;;10.75;9.68;;;;;;;;;;5069072;28;20772;-80
2021/08/19 00:20:16;;;;;;;9.77;8.85;;;;;;;;;;5061532;28;20955;-79
2021/08/19 00:22:42;;;;;;;10.63;9.63;;;;;;;;;;5088551;28;20393;-82
2021/08/19 00:25:08;;;;;;;10.73;9.70;;;;;;;;;;5067975;28;20874;-83
2021/08/19 00:27:34;;;;;;;10.88;9.77;;;;;;;;;;5068800;28;20457;-79
2021/08/19 00:30:00;;;;;;;11.40;10.10;;;;;;;;;;5070694;28;20478;-81
2021/08/19 00:32:26;;;;;;;11.10;10.13;;;;;;;;;;5050531;28;20374;-83
2021/08/19 00:34:52;;;;;;;11.43;10.32;;;;;;;;;;5068518;28;20766;-82
2021/08/19 00:37:18;;;;;;;11.52;10.43;;;;;;;;;;5068459;28;20374;-80
2021/08/19 00:39:47;;;;;;;12.35;11.13;;;;;;;;;;5056589;28;20391;-81
2021/08/19 00:42:17;;;;;;;12.63;11.50;;;;;;;;;;5088454;28;20373;-82
2021/08/19 00:44:44;;;;;;;13.27;11.88;;;;;;;;;;5088685;28;20360;-80
2021/08/19 00:47:10;;;;;;;13.75;12.45;;;;;;;;;;5081544;28;20382;-80
2021/08/19 00:49:38;;;;;;;13.60;12.30;;;;;;;;;;5068373;28;20431;-81
2021/08/19 00:52:04;;;;;;;13.48;12.18;;;;;;;;;;5050322;28;20363;-80
2021/08/19 00:54:30;;;;;;;14.70;13.30;;;;;;;;;;5068586;28;20432;-82
2021/08/19 00:56:58;;;;;;;16.13;14.47;;;;;;;;;;5072124;28;20406;-81
2021/08/19 00:59:24;;;;;;;15.75;14.38;;;;;;;;;;5088421;28;20480;-81
2021/08/19 01:01:54;;;;;;;15.93;14.32;;;;;;;;;;5088344;28;20360;-82
2021/08/19 01:04:20;;;;;;;15.17;13.87;;;;;;;;;;5088324;28;20394;-81
2021/08/19 01:06:46;;;;;;;15.65;14.05;;;;;;;;;;5086203;28;20491;-80
2021/08/19 01:09:12;;;;;;;16.38;14.70;;;;;;;;;;5068308;28;20367;-82
2021/08/19 01:11:42;;;;;;;15.77;14.15;;;;;;;;;;5050226;28;20382;-81
2021/08/19 01:14:15;;;;;;;16.48;14.88;;;;;;;;;;5067874;28;20412;-83
2021/08/19 01:16:42;;;;;;;15.90;14.40;;;;;;;;;;5068717;28;20987;-82
2021/08/19 01:19:08;;;;;;;15.82;14.32;;;;;;;;;;5088349;28;20364;-80
2021/08/19 01:21:34;;;;;;;15.60;14.07;;;;;;;;;;5088358;28;20393;-82
2021/08/19 01:24:00;;;;;;;14.57;13.27;;;;;;;;;;5062883;28;20406;-80
2021/08/19 01:26:28;;;;;;;14.80;13.40;;;;;;;;;;5068239;28;20427;-83
2021/08/19 01:28:55;;;;;;;15.32;13.82;;;;;;;;;;5050119;28;20442;-81
2021/08/19 01:31:23;;;;;;;14.98;13.57;;;;;;;;;;5068329;28;20393;-81
2021/08/19 01:33:49;;;;;;;14.48;13.18;;;;;;;;;;5076316;28;20383;-84
2021/08/19 01:36:15;;;;;;;14.60;13.30;;;;;;;;;;5073596;28;20858;-81
2021/08/19 01:38:42;;;;;;;15.13;13.73;;;;;;;;;;5073638;28;20434;-83
2021/08/19 01:41:09;;;;;;;15.77;14.13;;;;;;;;;;5089638;28;20364;-82
2021/08/19 01:43:35;;;;;;;14.65;13.35;;;;;;;;;;5073273;28;20404;-80
2021/08/19 01:46:01;;;;;;;15.20;13.60;;;;;;;;;;5092058;28;20360;-81
2021/08/19 01:48:28;;;;;;;14.18;12.77;;;;;;;;;;5091582;28;20385;-82
2021/08/19 01:50:54;;;;;;;14.47;13.07;;;;;;;;;;5088335;28;20445;-82
2021/08/19 01:53:21;;;;;;;14.23;12.73;;;;;;;;;;5053290;28;20381;-83
2021/08/19 01:55:47;;;;;;;13.48;12.38;;;;;;;;;;5071491;28;20370;-81
2021/08/19 01:58:13;;;;;;;14.50;12.73;;;;;;;;;;5070809;28;20362;-81
2021/08/19 02:00:39;;;;;;;14.18;12.68;;;;;;;;;;5071364;28;20435;-81
2021/08/19 02:03:05;;;;;;;12.77;11.63;;;;;;;;;;5091523;28;20402;-81
2021/08/19 02:05:31;;;;;;;12.67;11.50;;;;;;;;;;5091491;28;20372;-81
2021/08/19 02:07:57;;;;;;;12.88;11.63;;;;;;;;;;5091196;28;20468;-81
2021/08/19 02:10:23;;;;;;;13.32;12.15;;;;;;;;;;5091235;28;21209;-81
2021/08/19 02:12:49;;;;;;;13.52;12.05;;;;;;;;;;5072164;28;20382;-81
2021/08/19 02:15:15;;;;;;;12.80;11.68;;;;;;;;;;5052799;28;20386;-80
2021/08/19 02:17:41;;;;;;;12.57;11.38;;;;;;;;;;5052851;28;20386;-82
2021/08/19 02:20:07;;;;;;;12.32;11.23;;;;;;;;;;5070757;28;20847;-81
2021/08/19 02:22:33;;;;;;;12.55;11.27;;;;;;;;;;5086513;28;20400;-79
2021/08/19 02:24:59;;;;;;;11.15;10.25;;;;;;;;;;5090864;28;20424;-82
2021/08/19 02:27:26;;;;;;;11.77;10.57;;;;;;;;;;5090794;28;20364;-80
2021/08/19 02:29:52;;;;;;;11.40;10.30;;;;;;;;;;5090789;28;20372;-82
2021/08/19 02:32:19;;;;;;;11.20;10.20;;;;;;;;;;5057914;28;21142;-80
2021/08/19 02:34:45;;;;;;;11.73;10.55;;;;;;;;;;5070520;28;21185;-81
2021/08/19 02:37:11;;;;;;;11.63;10.43;;;;;;;;;;5070294;28;20424;-79
2021/08/19 02:39:37;;;;;;;10.57;9.68;;;;;;;;;;5069927;28;20366;-82
2021/08/19 02:42:03;;;;;;;9.95;9.05;;;;;;;;;;5086000;28;20399;-80
2021/08/19 02:44:29;;;;;;;11.05;9.95;;;;;;;;;;5072032;28;20380;-80
2021/08/19 02:46:55;;;;;;;10.65;9.07;;;;;;;;;;5072203;28;20377;-81
2021/08/19 02:49:21;;;;;;;9.80;8.73;;;;;;;;;;5090287;28;20391;-81
2021/08/19 02:51:47;;;;;;;9.77;8.77;;;;;;;;;;5075962;28;20914;-80
2021/08/19 02:54:13;;;;;;;9.00;8.20;;;;;;;;;;5069811;28;20397;-80
2021/08/19 02:56:40;;;;;;;8.95;8.00;;;;;;;;;;5052034;28;20386;-80
2021/08/19 02:59:07;;;;;;;9.00;8.17;;;;;;;;;;5070370;28;20460;-82
2021/08/19 03:01:33;;;;;;;8.55;7.75;;;;;;;;;;5081199;28;20377;-80
2021/08/19 03:03:59;;;;;;;8.43;7.18;;;;;;;;;;5089895;28;20407;-79
2021/08/19 03:06:25;;;;;;;7.73;7.03;;;;;;;;;;5089987;28;20357;-82
2021/08/19 03:08:51;;;;;;;7.53;6.50;;;;;;;;;;5071552;28;20935;-81
2021/08/19 03:11:17;;;;;;;10.80;7.30;;;;;;;;;;5079969;28;20438;-81
2021/08/19 03:13:42;;;;;;;10.43;7.75;;;;;;;;;;5069416;28;20430;-79
2021/08/19 03:16:09;;;;;;;8.13;7.43;;;;;;;;;;5069484;28;20362;-79
2021/08/19 03:18:35;;;;;;;8.85;7.78;;;;;;;;;;5069340;28;20370;-79
2021/08/19 03:21:01;;;;;;;10.80;9.00;;;;;;;;;;5076187;28;20380;-80
2021/08/19 03:23:27;;;;;;;11.15;9.98;;;;;;;;;;5070790;28;20981;-81
2021/08/19 03:25:54;;;;;;;10.67;9.40;;;;;;;;;;5089990;28;20448;-79
2021/08/19 03:28:22;;;;;;;11.48;10.32;;;;;;;;;;5089669;28;20368;-80
2021/08/19 03:30:48;;;;;;;10.52;9.52;;;;;;;;;;5066915;28;20488;-82
2021/08/19 03:33:16;;;;;;;10.88;9.88;;;;;;;;;;5069288;28;21163;-82
2021/08/19 03:35:42;;;;;;;11.35;10.20;;;;;;;;;;5069351;28;20381;-81
2021/08/19 03:38:09;;;;;;;10.45;9.55;;;;;;;;;;5068962;28;20370;-81
2021/08/19 03:40:35;;;;;;;10.80;9.70;;;;;;;;;;5073442;28;20387;-82
2021/08/19 03:43:01;;;;;;;10.05;9.15;;;;;;;;;;5071198;28;20758;-81
2021/08/19 03:45:27;;;;;;;9.40;8.50;;;;;;;;;;5070999;28;20875;-79
2021/08/19 03:47:54;;;;;;;10.25;9.23;;;;;;;;;;5082646;28;20405;-81
2021/08/19 03:50:20;;;;;;;9.18;8.20;;;;;;;;;;5069163;28;20370;-81
2021/08/19 03:52:46;;;;;;;9.80;8.90;;;;;;;;;;5068628;28;20362;-79
2021/08/19 03:55:12;;;;;;;9.27;8.38;;;;;;;;;;5068310;28;20436;-81
2021/08/19 03:57:38;;;;;;;9.82;8.82;;;;;;;;;;5072487;28;20381;-79
2021/08/19 04:00:05;;;;;;;9.70;8.80;;;;;;;;;;5070706;28;20731;-82
2021/08/19 04:02:31;;;;;;;9.60;8.77;;;;;;;;;;5089121;28;20396;-81
2021/08/19 04:04:56;;;;;;;9.50;8.52;;;;;;;;;;5089098;28;20396;-82
2021/08/19 04:07:22;;;;;;;9.02;8.15;;;;;;;;;;5086801;28;20964;-79
2021/08/19 04:09:48;;;;;;;7.82;7.03;;;;;;;;;;5068589;28;20382;-81
2021/08/19 04:12:14;;;;;;;8.35;7.55;;;;;;;;;;5050409;28;20728;-80
2021/08/19 04:14:40;;;;;;;8.82;7.80;;;;;;;;;;5068556;28;20385;-81
2021/08/19 04:17:07;;;;;;;8.80;7.80;;;;;;;;;;5068599;28;20370;-83
2021/08/19 04:19:32;;;;;;;7.45;6.65;;;;;;;;;;5087467;28;20383;-82
2021/08/19 04:21:58;;;;;;;8.48;6.97;;;;;;;;;;5070412;28;20380;-83
2021/08/19 04:24:24;;;;;;;7.87;7.07;;;;;;;;;;5069629;28;20423;-81
2021/08/19 04:26:50;;;;;;;9.35;7.40;;;;;;;;;;5068750;28;20433;-81
2021/08/19 04:29:16;;;;;;;8.60;7.30;;;;;;;;;;5050378;28;20901;-81
2021/08/19 04:31:42;;;;;;;7.78;7.05;;;;;;;;;;5082115;28;20380;-82
2021/08/19 04:34:08;;;;;;;7.75;7.00;;;;;;;;;;5060895;28;20786;-81
2021/08/19 04:36:35;;;;;;;8.65;7.68;;;;;;;;;;5050295;28;20473;-82
2021/08/19 04:39:00;;;;;;;8.35;7.15;;;;;;;;;;5050403;28;20405;-80
2021/08/19 04:41:26;;;;;;;7.00;6.35;;;;;;;;;;5053826;28;20430;-82
2021/08/19 04:43:52;;;;;;;7.40;6.70;;;;;;;;;;5068134;28;20772;-81
2021/08/19 04:46:18;;;;;;;7.30;6.60;;;;;;;;;;5050455;28;20388;-83
2021/08/19 04:48:44;;;;;;;7.32;6.03;;;;;;;;;;5068037;28;20398;-82
2021/08/19 04:51:10;;;;;;;8.00;6.47;;;;;;;;;;5070933;28;20413;-81
2021/08/19 04:53:36;;;;;;;9.13;6.30;;;;;;;;;;5063640;28;20949;-83
2021/08/19 04:56:02;;;;;;;6.73;6.13;;;;;;;;;;5055174;28;20378;-81
2021/08/19 04:58:28;;;;;;;7.10;6.35;;;;;;;;;;5056513;28;20476;-79
2021/08/19 05:00:57;;;;;;;6.97;6.25;;;;;;;;;;5066999;28;20876;-82
2021/08/19 05:03:23;;;;;;;7.15;6.20;;;;;;;;;;5067605;28;20573;-82
2021/08/19 05:05:49;;;;;;;6.70;6.05;;;;;;;;;;5058177;28;20912;-83
2021/08/19 05:08:15;;;;;;;6.80;6.18;;;;;;;;;;5067489;28;20377;-79
2021/08/19 05:10:41;;;;;;;7.13;6.53;;;;;;;;;;5070796;28;20432;-81
2021/08/19 05:13:07;;;;;;;7.32;6.63;;;;;;;;;;5071187;28;20405;-81
2021/08/19 05:15:33;;;;;;;8.38;6.97;;;;;;;;;;5060867;28;20402;-79
2021/08/19 05:17:59;;;;;;;7.20;6.50;;;;;;;;;;5061056;28;20390;-81
2021/08/19 05:20:25;;;;;;;6.70;6.00;;;;;;;;;;5070875;28;20378;-80
2021/08/19 05:22:51;;;;;;;9.65;7.00;;;;;;;;;;5070267;28;20401;-82
2021/08/19 05:25:17;;;;;;;7.13;6.50;;;;;;;;;;5070544;28;20868;-80
2021/08/19 05:27:43;;;;;;;7.40;6.70;;;;;;;;;;5070455;28;20401;-80
2021/08/19 05:30:10;;;;;;;8.13;6.57;;;;;;;;;;5070276;28;20378;-81
2021/08/19 05:32:36;;;;;;;7.90;6.53;;;;;;;;;;5070687;28;20378;-82
2021/08/19 05:35:03;;;;;;;7.50;6.80;;;;;;;;;;5060323;28;20751;-84
2021/08/19 05:37:29;;;;;;;7.43;6.50;;;;;;;;;;5061018;28;20385;-81
2021/08/19 05:39:55;;;;;;;7.70;7.00;;;;;;;;;;5070673;28;20981;-82
2021/08/19 05:42:21;;;;;;;8.63;6.57;;;;;;;;;;5060699;28;20915;-81
2021/08/19 05:44:47;;;;;;;7.78;6.97;;;;;;;;;;5070413;28;20764;-83
2021/08/19 05:47:13;;;;;;;6.88;6.25;;;;;;;;;;5072671;28;20366;-82
2021/08/19 05:49:43;;;;;;;6.95;6.13;;;;;;;;;;5070347;28;20771;-79
2021/08/19 05:52:12;;;;;;;7.90;6.53;;;;;;;;;;5070442;28;20377;-82
2021/08/19 05:54:38;;;;;;;6.80;6.20;;;;;;;;;;5070291;28;20371;-82
2021/08/19 05:57:04;;;;;;;7.40;6.67;;;;;;;;;;5070376;28;20404;-81
2021/08/19 05:59:30;;;;;;;8.82;6.32;;;;;;;;;;5069885;28;20366;-79
2021/08/19 06:01:56;;;;;;;7.00;6.30;;;;;;;;;;5059758;28;20371;-80
2021/08/19 06:04:22;;;;;;;7.20;6.15;;;;;;;;;;5072145;28;20393;-80
2021/08/19 06:06:48;;;;;;;7.67;6.33;;;;;;;;;;5070646;28;20374;-81
2021/08/19 06:09:14;;;;;;;8.70;6.50;;;;;;;;;;5069803;28;20436;-84
2021/08/19 06:11:41;;;;;;;8.80;6.50;;;;;;;;;;5069805;28;20428;-81
2021/08/19 06:14:07;;;;;;;10.63;6.00;;;;;;;;;;5064276;28;20385;-80
2021/08/19 06:16:33;;;;;;;8.68;5.90;;;;;;;;;;5065668;28;20366;-81
2021/08/19 06:19:00;;;;;;;7.55;6.65;;;;;;;;;;5065525;28;20382;-83
2021/08/19 06:21:26;;;;;;;6.85;6.13;;;;;;;;;;5068119;28;20428;-80
2021/08/19 06:23:52;;;;;;;10.18;6.30;;;;;;;;;;5059710;28;20412;-82
2021/08/19 06:26:18;;;;;;;8.75;6.15;;;;;;;;;;5060026;28;20386;-82
2021/08/19 06:28:47;;;;;;;8.65;6.50;;;;;;;;;;5064973;28;20394;-83
2021/08/19 06:31:13;;;;;;;9.00;6.50;;;;;;;;;;5050456;28;20442;-81
2021/08/19 06:33:39;;;;;;;7.53;6.82;;;;;;;;;;5049013;28;20392;-85
2021/08/19 06:36:07;;;;;;;7.78;6.65;;;;;;;;;;5066948;28;20386;-81
2021/08/19 06:38:33;;;;;;;8.98;7.32;;;;;;;;;;5048616;28;20390;-81
2021/08/19 06:40:59;;;;;;;13.32;8.00;;;;;;;;;;5059124;28;20860;-82
2021/08/19 06:43:25;;;;;;;9.18;7.85;;;;;;;;;;5053188;28;20448;-82
2021/08/19 06:45:51;;;;;;;10.43;7.75;;;;;;;;;;5058914;28;20846;-80
2021/08/19 06:48:17;;;;;;;10.30;7.73;;;;;;;;;;5062773;28;20389;-84
2021/08/19 06:50:44;;;;;;;7.85;7.05;;;;;;;;;;5054851;28;20883;-83
2021/08/19 06:53:10;;;;;;;8.48;7.57;;;;;;;;;;5064335;28;20442;-84
2021/08/19 06:55:36;;;;;;;11.35;7.65;;;;;;;;;;5066149;28;20386;-80
2021/08/19 06:58:02;;;;;;;8.98;6.82;;;;;;;;;;5064008;28;20412;-81
2021/08/19 07:00:28;;;;;;;10.90;8.05;;;;;;;;;;5065980;28;20770;-83
2021/08/19 07:02:55;;;;;;;12.75;8.13;;;;;;;;;;5065534;28;20449;-83
2021/08/19 07:05:21;;;;;;;12.63;7.83;;;;;;;;;;5065776;28;20385;-81
2021/08/19 07:07:47;;;;;;;11.97;8.37;;;;;;;;;;5066421;28;20374;-84
2021/08/19 07:10:13;;;;;;;9.32;7.47;;;;;;;;;;5058142;28;21018;-82
2021/08/19 07:12:40;;;;;;;8.98;7.63;;;;;;;;;;5054610;28;20525;-80
2021/08/19 07:15:07;;;;;;;7.97;7.18;;;;;;;;;;5059131;28;20473;-83
2021/08/19 07:17:33;;;;;;;10.80;7.65;;;;;;;;;;5059742;28;20934;-82
2021/08/19 07:19:59;;;;;;;10.00;7.55;;;;;;;;;;5058984;28;20374;-81
2021/08/19 07:22:25;;;;;;;10.77;6.88;;;;;;;;;;5058756;28;20364;-81
2021/08/19 07:24:52;;;;;;;9.98;7.30;;;;;;;;;;5046806;28;20376;-82
2021/08/19 07:27:18;;;;;;;8.30;6.70;;;;;;;;;;5062468;28;20378;-84
2021/08/19 07:29:44;;;;;;;8.52;7.35;;;;;;;;;;5062709;28;20366;-81
2021/08/19 07:32:10;;;;;;;9.80;6.87;;;;;;;;;;5065609;28;20724;-85
2021/08/19 07:34:36;;;;;;;8.05;6.78;;;;;;;;;;5065657;28;20474;-81
2021/08/19 07:37:02;;;;;;;8.20;6.65;;;;;;;;;;5047709;28;20380;-80
2021/08/19 07:39:28;;;;;;;8.40;6.38;;;;;;;;;;5045796;28;21123;-82
2021/08/19 07:41:54;;;;;;;8.93;6.65;;;;;;;;;;5064666;28;20380;-82
2021/08/19 07:44:20;;;;;;;8.80;6.50;;;;;;;;;;5051007;28;20396;-82
2021/08/19 07:46:47;;;;;;;8.20;6.82;;;;;;;;;;5047612;28;20386;-85
2021/08/19 07:49:15;;;;;;;8.25;6.80;;;;;;;;;;5047353;28;20398;-83
2021/08/19 07:51:41;;;;;;;10.07;6.50;;;;;;;;;;5064041;28;20378;-84
2021/08/19 07:54:07;;;;;;;9.20;6.47;;;;;;;;;;5061725;28;20380;-83
2021/08/19 07:56:33;;;;;;;10.40;6.47;;;;;;;;;;5063084;28;20428;-81
2021/08/19 07:58:59;;;;;;;8.77;6.60;;;;;;;;;;5053368;28;20410;-81
2021/08/19 08:01:25;;;;;;;7.32;6.00;;;;;;;;;;5056697;28;20428;-81
2021/08/19 08:03:51;;;;;;;9.13;6.32;;;;;;;;;;5046751;28;20410;-80
2021/08/19 08:06:18;;;;;;;7.57;6.30;;;;;;;;;;5055598;28;20819;-82
2021/08/19 08:08:44;;;;;;;7.22;6.40;;;;;;;;;;5048256;28;20910;-80
2021/08/19 08:11:10;;;;;;;9.23;6.50;;;;;;;;;;5061739;28;20461;-83
2021/08/19 08:13:37;;;;;;;7.97;6.38;;;;;;;;;;5056782;28;20462;-83
2021/08/19 08:16:03;;;;;;;8.45;6.47;;;;;;;;;;5057657;28;20469;-82
2021/08/19 08:18:29;;;;;;;7.05;6.35;;;;;;;;;;5053863;28;20424;-80
2021/08/19 08:20:57;;;;;;;8.52;6.68;;;;;;;;;;5055796;28;20375;-84
2021/08/19 08:23:23;;;;;;;9.95;6.85;;;;;;;;;;5059494;28;20423;-80
2021/08/19 08:25:50;;;;;;;9.73;6.80;;;;;;;;;;5046361;28;20966;-82
2021/08/19 08:28:20;;;;;;;9.40;6.57;;;;;;;;;;5046271;28;20414;-81
2021/08/19 08:30:51;;;;;;;8.10;6.20;;;;;;;;;;5062310;28;20377;-82
2021/08/19 08:33:17;;;;;;;7.82;6.32;;;;;;;;;;5044169;28;20426;-80
2021/08/19 08:35:43;;;;;;;7.93;6.53;;;;;;;;;;5058136;28;20795;-80
2021/08/19 08:38:12;;;;;;;10.07;6.93;;;;;;;;;;5065129;28;20434;-81
2021/08/19 08:40:39;;;;;;;7.80;6.75;;;;;;;;;;5065545;28;20386;-83
2021/08/19 08:43:06;;;;;;;7.68;5.68;;;;;;;;;;5071699;28;20612;-81
2021/08/19 08:45:34;;;;;;;9.00;6.30;;;;;;;;;;5050922;28;20744;-84
2021/08/19 08:48:11;;;;;;;8.80;5.88;;;;;;;;;;5053916;28;20864;-80
2021/08/19 08:50:39;;;;;;;10.18;5.88;;;;;;;;;;5079530;28;20489;-81
2021/08/19 08:53:05;;;;;;;7.05;6.05;;;;;;;;;;5063994;28;20362;-81
2021/08/19 08:55:31;;;;;;;6.75;5.28;;;;;;;;;;5063266;28;20440;-83
2021/08/19 08:57:59;;;;;;;8.82;5.22;;;;;;;;;;5062946;28;20378;-79
2021/08/19 09:00:25;;;;;;;7.22;6.00;;;;;;;;;;5060888;28;20426;-82
2021/08/19 09:02:51;;;;;;;6.40;5.13;;;;;;;;;;5049265;28;20417;-80
2021/08/19 09:05:24;;;;;;;7.37;5.80;;;;;;;;;;5060698;28;20432;-80
2021/08/19 09:07:57;;;;;;;6.15;5.13;;;;;;;;;;5064046;28;20385;-82
2021/08/19 09:10:24;;;;;;;5.85;4.90;;;;;;;;;;5068286;28;20452;-81
2021/08/19 09:12:52;;;;;;;6.37;5.43;;;;;;;;;;5066861;28;20385;-82
2021/08/19 09:15:18;;;;;;;8.60;5.20;;;;;;;;;;5065524;28;20377;-80
2021/08/19 09:17:51;;;;;;;8.35;5.70;;;;;;;;;;5065795;28;20990;-82
2021/08/19 09:20:18;;;;;;;5.57;4.80;;;;;;;;;;5048890;28;20744;-81
2021/08/19 09:22:55;;;;;;;8.27;5.18;;;;;;;;;;5047836;28;20416;-83
2021/08/19 09:25:26;;;;;;;6.97;4.80;;;;;;;;;;5062668;28;20868;-83
2021/08/19 09:28:09;;;;;;;6.78;5.18;;;;;;;;;;5069226;28;20532;-80
2021/08/19 09:30:35;;;;;;;7.57;5.20;;;;;;;;;;5069921;28;20390;-80
2021/08/19 09:33:05;;;;;;;6.90;5.10;;;;;;;;;;5065264;28;20409;-82
2021/08/19 09:35:32;;;;;;;8.43;5.10;;;;;;;;;;5062731;28;20401;-82
2021/08/19 09:37:58;;;;;;;6.95;5.13;;;;;;;;;;5064522;28;20372;-81
2021/08/19 09:40:24;;;;;;;7.07;5.28;;;;;;;;;;5049087;28;20413;-83
2021/08/19 09:42:50;;;;;;;8.27;5.45;;;;;;;;;;5062671;28;20763;-81
2021/08/19 09:45:20;;;;;;;6.35;4.90;;;;;;;;;;5048318;28;20393;-81
2021/08/19 09:47:47;;;;;;;8.13;5.65;;;;;;;;;;5059213;28;20469;-82
2021/08/19 09:50:13;;;;;;;6.55;5.50;;;;;;;;;;5065798;28;20371;-82
2021/08/19 09:52:39;;;;;;;9.02;5.60;;;;;;;;;;5064453;28;20886;-82
2021/08/19 09:55:21;;;;;;;8.40;5.50;;;;;;;;;;5043177;28;20386;-82
2021/08/19 09:57:47;;;;;;;7.45;5.28;;;;;;;;;;5046657;28;20400;-82
2021/08/19 10:00:26;;;;;;;7.93;5.30;;;;;;;;;;5063724;28;20868;-83
2021/08/19 10:02:53;;;;;;;6.60;4.97;;;;;;;;;;5065567;28;20928;-81
2021/08/19 10:05:20;;;;;;;7.50;5.05;;;;;;;;;;5063470;28;20370;-81
2021/08/19 10:07:46;;;;;;;6.00;4.72;;;;;;;;;;5047350;28;20374;-81
2021/08/19 10:10:12;;;;;;;6.20;4.83;;;;;;;;;;5063703;28;20410;-82
2021/08/19 10:12:45;;;;;;;7.72;5.20;;;;;;;;;;5062364;28;20429;-81
2021/08/19 10:15:11;;;;;;;7.20;5.22;;;;;;;;;;5059518;28;21062;-81
2021/08/19 10:17:38;;;;;;;6.23;4.80;;;;;;;;;;5063992;28;20377;-81
2021/08/19 10:20:06;;;;;;;7.93;5.47;;;;;;;;;;5058074;28;20370;-81
2021/08/19 10:22:33;;;;;;;7.28;5.20;;;;;;;;;;5059504;28;20370;-82
2021/08/19 10:25:00;;;;;;;8.32;4.95;;;;;;;;;;5061654;28;20411;-82
2021/08/19 10:27:30;;;;;;;7.37;5.13;;;;;;;;;;5061426;28;20868;-83
2021/08/19 10:29:59;;;;;;;6.95;5.47;;;;;;;;;;5064701;28;21040;-82
2021/08/19 10:32:31;;;;;;;8.93;5.40;;;;;;;;;;5048781;28;20394;-82
2021/08/19 10:35:03;;;;;;;6.97;5.13;;;;;;;;;;5062577;28;20477;-80
2021/08/19 10:37:47;;;;;;;8.60;5.50;;;;;;;;;;5063705;28;20402;-83
2021/08/19 10:40:28;;;;;;;5.97;5.28;;;;;;;;;;5047003;28;20725;-82
2021/08/19 10:42:56;;;;;;;8.27;5.28;;;;;;;;;;5047463;28;20895;-81
2021/08/19 10:45:28;;;;;;;8.35;4.70;;;;;;;;;;5060399;28;20374;-82
2021/08/19 10:48:06;;;;;;;8.82;5.72;;;;;;;;;;5060770;28;20893;-81
2021/08/19 10:50:46;;;;;;;7.13;5.10;;;;;;;;;;5063944;28;20374;-82
2021/08/19 10:53:16;;;;;;;6.07;4.80;;;;;;;;;;5064633;28;20381;-82
2021/08/19 10:55:43;;;;;;;6.43;4.90;;;;;;;;;;5062709;28;20415;-82
2021/08/19 10:58:29;;;;;;;8.20;5.22;;;;;;;;;;5061966;28;20836;-81
2021/08/19 11:00:56;;;;;;;8.30;4.78;;;;;;;;;;5063113;28;20390;-81
2021/08/19 11:03:38;;;;;;;6.32;4.97;;;;;;;;;;5060670;28;20416;-83
2021/08/19 11:06:05;;;;;;;7.10;5.05;;;;;;;;;;5057318;28;20478;-83
2021/08/19 11:08:49;;;;;;;8.68;5.05;;;;;;;;;;5059233;28;20424;-81
2021/08/19 11:11:25;;;;;;;6.18;4.75;;;;;;;;;;5061025;28;20358;-82
2021/08/19 11:13:58;;;;;;;6.45;5.15;;;;;;;;;;5060320;28;20390;-83
2021/08/19 11:16:24;;;;;;;8.02;4.50;;;;;;;;;;5046543;28;20381;-83
2021/08/19 11:18:49;;;;;;;5.60;5.00;;;;;;;;;;5061761;28;20381;-82
2021/08/19 11:21:16;;;;;;;7.68;4.60;;;;;;;;;;5066555;28;20389;-83
2021/08/19 11:23:43;;;;;;;8.15;4.70;;;;;;;;;;5068423;28;20406;-82
2021/08/19 11:26:10;;;;;;;4.85;4.20;;;;;;;;;;5068686;28;20736;-81
2021/08/19 11:28:37;;;;;;;7.65;4.40;;;;;;;;;;5068846;28;20425;-82
2021/08/19 11:31:17;;;;;;;7.72;4.60;;;;;;;;;;5068003;28;20469;-81
2021/08/19 11:33:44;;;;;;;10.63;4.20;;;;;;;;;;5050174;28;20744;-80
2021/08/19 11:36:11;;;;;;;6.15;4.10;;;;;;;;;;5068335;28;20838;-81
2021/08/19 11:38:37;;;;;;;5.78;3.70;;;;;;;;;;5083885;28;20373;-81
2021/08/19 11:41:14;;;;;;;6.68;4.13;;;;;;;;;;5070445;28;20379;-78
2021/08/19 11:43:42;;;;;;;6.00;4.03;;;;;;;;;;5068441;28;20412;-81
2021/08/19 11:46:12;;;;;;;6.40;3.30;;;;;;;;;;5067632;28;21629;-80
2021/08/19 11:48:48;;;;;;;4.90;3.55;;;;;;;;;;5049258;28;20406;-81
2021/08/19 11:51:20;;;;;;;7.25;3.53;;;;;;;;;;5065349;28;20477;-82
2021/08/19 11:53:50;;;;;;;7.60;3.67;;;;;;;;;;5067851;28;21361;-83
2021/08/19 11:56:16;;;;;;;6.60;3.70;;;;;;;;;;5064495;28;20374;-82
2021/08/19 11:58:42;;;;;;;7.05;4.38;;;;;;;;;;5046699;28;20469;-81
2021/08/19 12:01:12;;;;;;;5.03;3.80;;;;;;;;;;5065596;28;20572;-81
2021/08/19 12:03:42;;;;;;;5.90;4.00;;;;;;;;;;5049679;28;20768;-80
2021/08/19 12:06:18;;;;;;;4.20;3.80;;;;;;;;;;5067510;28;20436;-82
2021/08/19 12:08:48;;;;;;;5.20;3.83;;;;;;;;;;5049119;28;21022;-81
2021/08/19 12:11:15;;;;;;;5.22;3.90;;;;;;;;;;5049792;28;21244;-82
2021/08/19 12:13:42;;;;;;;5.53;4.20;;;;;;;;;;5068227;28;20370;-81
2021/08/19 12:16:09;;;;;;;6.22;3.85;;;;;;;;;;5066870;28;20381;-82
2021/08/19 12:18:35;;;;;;;5.47;4.18;;;;;;;;;;5067819;28;20389;-81
2021/08/19 12:21:20;;;;;;;5.60;3.92;;;;;;;;;;5067846;28;20804;-79
2021/08/19 12:23:47;;;;;;;5.68;3.70;;;;;;;;;;5068554;28;20413;-79
2021/08/19 12:26:14;;;;;;;5.13;3.90;;;;;;;;;;5068607;28;20380;-78
2021/08/19 12:28:40;;;;;;;6.23;3.80;;;;;;;;;;5067787;28;20398;-79
2021/08/19 12:31:10;;;;;;;6.07;3.90;;;;;;;;;;5067979;28;20455;-79
2021/08/19 12:33:37;;;;;;;6.20;4.07;;;;;;;;;;5067517;28;20886;-80
2021/08/19 12:36:12;;;;;;;8.20;3.95;;;;;;;;;;5067267;28;20457;-79
2021/08/19 12:38:39;;;;;;;6.05;3.60;;;;;;;;;;5067172;28;20385;-80
2021/08/19 12:41:31;;;;;;;5.30;3.75;;;;;;;;;;5046389;28;20386;-81
2021/08/19 12:44:04;;;;;;;4.82;4.00;;;;;;;;;;5063545;28;20507;-81
2021/08/19 12:46:37;;;;;;;8.55;4.38;;;;;;;;;;5067980;28;20366;-79
2021/08/19 12:49:22;;;;;;;10.93;4.32;;;;;;;;;;5067716;28;20926;-79
2021/08/19 12:51:48;;;;;;;5.28;4.00;;;;;;;;;;5068847;28;20358;-81
2021/08/19 12:54:23;;;;;;;7.60;4.60;;;;;;;;;;5066002;28;20381;-79
2021/08/19 12:56:59;;;;;;;5.53;4.07;;;;;;;;;;5049623;28;20846;-81
2021/08/19 12:59:25;;;;;;;7.47;4.10;;;;;;;;;;5067664;28;20900;-78
2021/08/19 13:01:51;;;;;;;6.15;4.30;;;;;;;;;;5066963;28;20405;-81
2021/08/19 13:04:17;;;;;;;6.30;4.30;;;;;;;;;;5067988;28;20437;-80
2021/08/19 13:06:43;;;;;;;8.13;4.22;;;;;;;;;;5066860;28;20370;-79
2021/08/19 13:09:09;;;;;;;5.83;3.93;;;;;;;;;;5066622;28;21156;-80
2021/08/19 13:11:35;;;;;;;5.50;4.10;;;;;;;;;;5049341;28;20378;-79
2021/08/19 13:14:01;;;;;;;6.20;4.32;;;;;;;;;;5050008;28;20868;-80
2021/08/19 13:16:28;;;;;;;4.93;4.20;;;;;;;;;;5066889;28;20370;-79
2021/08/19 13:18:54;;;;;;;5.97;4.10;;;;;;;;;;5067721;28;20371;-79
2021/08/19 13:21:20;;;;;;;9.13;4.30;;;;;;;;;;5048759;28;20457;-81
2021/08/19 13:23:46;;;;;;;6.07;4.07;;;;;;;;;;5087426;28;20392;-81
2021/08/19 13:26:12;;;;;;;6.87;4.50;;;;;;;;;;5087474;28;20430;-79
2021/08/19 13:28:38;;;;;;;6.68;4.28;;;;;;;;;;5088989;28;20375;-79
2021/08/19 13:31:04;;;;;;;6.30;4.20;;;;;;;;;;5071582;28;20764;-79
2021/08/19 13:33:30;;;;;;;6.03;4.25;;;;;;;;;;5059432;28;20370;-79
2021/08/19 13:35:56;;;;;;;5.72;4.22;;;;;;;;;;5050082;28;20411;-79
2021/08/19 13:38:22;;;;;;;8.13;4.18;;;;;;;;;;5051076;28;20375;-80
2021/08/19 13:40:48;;;;;;;4.97;3.80;;;;;;;;;;5050115;28;20392;-79
2021/08/19 13:43:14;;;;;;;5.55;3.85;;;;;;;;;;5048258;28;20404;-82
2021/08/19 13:45:40;;;;;;;6.78;4.07;;;;;;;;;;5050850;28;20376;-81
2021/08/19 13:48:06;;;;;;;5.03;4.00;;;;;;;;;;5051039;28;20376;-82
2021/08/19 13:50:33;;;;;;;9.48;4.07;;;;;;;;;;5050179;28;20384;-82
2021/08/19 13:52:59;;;;;;;5.25;4.35;;;;;;;;;;5049686;28;20376;-81
2021/08/19 13:55:25;;;;;;;5.30;4.00;;;;;;;;;;5050997;28;20492;-81
2021/08/19 13:57:51;;;;;;;5.80;4.00;;;;;;;;;;5049568;28;20707;-80
2021/08/19 14:00:17;;;;;;;5.15;3.78;;;;;;;;;;5048415;28;20388;-82
2021/08/19 14:02:43;;;;;;;5.90;3.60;;;;;;;;;;5050179;28;20715;-80
2021/08/19 14:05:10;;;;;;;6.28;3.85;;;;;;;;;;5050577;28;20406;-82
2021/08/19 14:07:36;;;;;;;7.03;4.03;;;;;;;;;;5050757;28;20400;-82
2021/08/19 14:10:03;;;;;;;6.47;3.63;;;;;;;;;;5049677;28;20376;-82
2021/08/19 14:12:29;;;;;;;5.32;3.70;;;;;;;;;;5050145;28;20463;-83
2021/08/19 14:14:55;;;;;;;5.72;4.03;;;;;;;;;;5050218;28;20960;-81
2021/08/19 14:17:21;;;;;;;5.65;3.88;;;;;;;;;;5050403;28;20390;-81
2021/08/19 14:19:47;;;;;;;5.40;3.50;;;;;;;;;;5049683;28;20414;-82
2021/08/19 14:22:13;;;;;;;5.00;3.78;;;;;;;;;;5048464;28;20416;-82
2021/08/19 14:24:39;;;;;;;7.77;3.87;;;;;;;;;;5048509;28;20412;-83
2021/08/19 14:27:05;;;;;;;4.88;3.70;;;;;;;;;;5048705;28;20375;-83
2021/08/19 14:29:31;;;;;;;5.18;3.92;;;;;;;;;;5049207;28;20379;-83
2021/08/19 14:31:57;;;;;;;5.13;3.50;;;;;;;;;;5049589;28;20411;-82
2021/08/19 14:34:23;;;;;;;6.47;3.95;;;;;;;;;;5049198;28;20491;-81
2021/08/19 14:36:49;;;;;;;9.30;4.40;;;;;;;;;;5052749;28;20927;-81
2021/08/19 14:39:16;;;;;;;4.80;4.30;;;;;;;;;;5068852;28;20443;-81